Flight Track Log - Related Links

Times and Time Zones

All times are in EST time to prevent confusion due to time zone crossing. See the FLG4048 flight status page for this flight to view local times or setup timezone preferences in your user account.

Time Position Orientation Groundspeed Altitude Reporting Facility
EST Latitude Longitude Course Direction KTS MPH feet Rate Location/Type
Thu 08:01:05 PM 39.0333 -84.6500 113° Southeast 180 207 1,800  Level Cincinnati TRACON
Thu 08:01:47 PM 39.0167 -84.6000 113° Southeast 209 241 3,300 2,125 Climbing Cincinnati TRACON
Thu 08:02:41 PM 39.0333 -84.5167 76° East 259 298 5,200 1,548 Climbing Cincinnati TRACON
Thu 08:03:20 PM 39.0264 -84.4847 106° East 262 302 5,700 1,980 Climbing Indianapolis Center
Thu 08:04:21 PM 39.0553 -84.3731 72° East 275 316 8,500 2,488 Climbing Indianapolis Center
Thu 08:05:23 PM 39.0906 -84.2744 65° Northeast 301 346 10,800 1,694 Climbing Indianapolis Center
Thu 08:06:25 PM 39.1294 -84.1544 67° East 353 406 12,000 1,463 Climbing Indianapolis Center
Thu 08:07:26 PM 39.1728 -84.0231 67° East 394 453 13,800 1,756 Climbing Indianapolis Center
Thu 08:08:28 PM 39.2217 -83.8894 65° Northeast 410 472 15,600 1,790 Climbing Indianapolis Center
Thu 08:09:30 PM 39.2725 -83.7539 64° Northeast 420 483 17,500 1,403 Climbing Indianapolis Center
Thu 08:10:32 PM 39.3253 -83.6175 63° Northeast 427 491 18,500 1,122 Climbing Indianapolis Center
Thu 08:11:33 PM 39.3892 -83.4458 64° Northeast 444 511 19,800 1,024 Climbing Indianapolis Center
Thu 08:12:35 PM 39.4458 -83.2953 64° Northeast 464 534 20,600 774 Climbing Indianapolis Center
Thu 08:13:37 PM 39.5033 -83.1414 64° Northeast 478 550 21,400 780 Climbing Indianapolis Center
Thu 08:14:38 PM 39.5631 -82.9844 64° Northeast 487 560 22,200 780 Climbing Indianapolis Center
Thu 08:15:40 PM 39.6108 -82.8189 69° East 496 571 23,000 823 Climbing Indianapolis Center
Thu 08:16:42 PM 39.6286 -82.6022 84° East 507 583 23,900 823 Climbing Indianapolis Center
Thu 08:17:44 PM 39.6425 -82.4203 84° East 509 586 24,700 732 Climbing Indianapolis Center
Thu 08:18:45 PM 39.6556 -82.2378 85° East 510 587 25,400 585 Climbing Indianapolis Center
Thu 08:19:47 PM 39.6700 -82.0556 84° East 517 595 25,900 484 Climbing Indianapolis Center
Thu 08:20:49 PM 39.6842 -81.8658 84° East 523 602 26,400 537 Climbing Indianapolis Center
Thu 08:21:50 PM 39.6981 -81.6756 85° East 526 605 27,000 1,073 Climbing Indianapolis Center
Thu 08:22:52 PM 39.7094 -81.4900 85° East 522 601 28,600 1,306 Climbing Indianapolis Center
Thu 08:23:54 PM 39.7711 -81.2872 68° East 506 582 29,700 780 Climbing Indianapolis Center
Thu 08:24:55 PM 39.8400 -81.1256 61° Northeast 508 585 30,200 488 Climbing Indianapolis Center
Thu 08:25:57 PM 39.9086 -80.9603 62° Northeast 517 595 30,700 471 Climbing Indianapolis Center
Thu 08:26:37 PM 39.9544 -80.8558 60° Northeast 515 593 31,000 176 Climbing Cleveland Center
Thu 08:27:39 PM 40.0233 -80.6894 62° Northeast 523 602 31,000  Level Cleveland Center
Thu 08:28:41 PM 40.0942 -80.5183 62° Northeast 533 613 31,000  Level Cleveland Center
Thu 08:29:43 PM 40.1644 -80.3469 62° Northeast 539 620 31,000  Level Cleveland Center
Thu 08:30:44 PM 40.2492 -80.1400 62° Northeast 546 628 31,000  Level Cleveland Center
Thu 08:31:46 PM 40.3186 -79.9706 62° Northeast 545 627 31,000  Level Cleveland Center
Thu 08:32:48 PM 40.3881 -79.7983 62° Northeast 544 626 31,000  Level Cleveland Center
Thu 08:33:50 PM 40.4583 -79.6228 62° Northeast 547 629 31,000  Level Cleveland Center
Thu 08:34:51 PM 40.5286 -79.4464 62° Northeast 548 631 31,000  Level Cleveland Center
Thu 08:35:53 PM 40.6133 -79.2333 62° Northeast 550 633 31,000  Level Cleveland Center
Thu 08:36:55 PM 40.6839 -79.0556 62° Northeast 551 634 31,000  Level Cleveland Center
Thu 08:37:57 PM 40.7522 -78.8842 62° Northeast 548 631 31,000  Level Cleveland Center
Thu 08:38:58 PM 40.8211 -78.7069 63° Northeast 549 632 31,000  Level Cleveland Center
Thu 08:40:00 PM 40.8928 -78.5200 63° Northeast 549 632 31,000  Level Cleveland Center
Thu 08:41:02 PM 40.9631 -78.3375 63° Northeast 556 640 31,000  Level Cleveland Center
Thu 08:42:03 PM 41.0389 -78.1378 63° Northeast 559 643 31,000  Level Cleveland Center
Thu 08:43:05 PM 41.1089 -77.9569 63° Northeast 559 643 31,000  Level Cleveland Center
Thu 08:44:07 PM 41.1778 -77.7747 63° Northeast 557 641 31,000  Level Cleveland Center
Thu 08:44:57 PM 41.2467 -77.5869 64° Northeast 555 639 31,000  Level New York Center
Thu 08:45:57 PM 41.3153 -77.4033 64° Northeast 555 639 31,000  Level New York Center
Thu 08:46:57 PM 41.3764 -77.2408 63° Northeast 549 632 31,000  Level New York Center
Thu 08:47:57 PM 41.4469 -77.0508 64° Northeast 554 638 31,000  Level New York Center
Thu 08:48:57 PM 41.5203 -76.8444 65° Northeast 560 644 31,000  Level New York Center
Thu 08:49:57 PM 41.5850 -76.6728 63° Northeast 560 644 31,000  Level New York Center
Thu 08:50:57 PM 41.6525 -76.4844 64° Northeast 565 650 31,000  Level New York Center
Thu 08:51:57 PM 41.7222 -76.2903 64° Northeast 565 650 31,000 -750 Level New York Center
Thu 08:52:57 PM 41.7869 -76.1036 65° Northeast 565 650 29,500 -1,371 Descending New York Center
Thu 08:54:52 PM 41.9064 -75.7658 64° Northeast 555 639 27,000 -857 Descending Boston Center
Thu 08:55:52 PM 41.9742 -75.5842 63° Northeast 548 631 27,000  Level Boston Center
Thu 08:56:52 PM 42.0464 -75.3625 66° East 545 627 27,000  Level Boston Center
Thu 08:57:53 PM 42.0797 -75.1683 77° East 537 618 27,000 -590 Level Boston Center
Thu 08:58:54 PM 42.1019 -74.9653 82° East 532 612 25,800 -1,721 Descending Boston Center
Thu 08:59:55 PM 42.1233 -74.7706 82° East 529 609 23,500 -2,529 Descending Boston Center
Thu 09:00:55 PM 42.1428 -74.5825 82° East 516 594 20,700 -2,195 Descending Boston Center
Thu 09:01:58 PM 42.1611 -74.3917 83° East 503 579 19,000 -1,355 Descending Boston Center
Thu 09:02:59 PM 42.1789 -74.2075 83° East 498 573 17,900 -1,525 Descending Boston Center
Thu 09:04:00 PM 42.1981 -74.0347 81° East 475 547 15,900 -1,983 Descending Boston Center
Thu 09:05:00 PM 42.2156 -73.8586 82° East 445 512 13,900 -1,686 Descending Boston Center
Thu 09:06:01 PM 42.2306 -73.7036 83° East 435 501 12,500 -1,366 Descending Boston Center
Thu 09:07:03 PM 42.2447 -73.5544 83° East 405 466 11,100 -918 Descending Boston Center
Thu 09:07:39 PM 42.2531 -73.4531 84° East 398 458 11,000 -100 Descending Boston Center
Thu 09:08:03 PM 42.2583 -73.4061 81° East 402 463 11,000  Level Boston Center
Thu 09:08:41 PM 42.2653 -73.3092 84° East 390 449 11,000  Level Boston Center
Thu 09:09:02 PM 42.2719 -73.2525 81° East 398 458 11,000 -517 Level Boston Center
Thu 09:09:39 PM 42.2781 -73.1628 85° East 389 448 10,500 -727 Descending Boston Center
Thu 09:10:41 PM 42.2869 -73.0439 84° East 297 342 9,800 -1,113 Descending Boston Center
Thu 09:11:43 PM 42.2961 -72.9336 84° East 285 328 8,200 -1,561 Descending Boston Center
Thu 09:12:44 PM 42.3044 -72.8175 84° East 295 339 6,600 -1,513 Descending Boston Center
Thu 09:13:42 PM 42.3033 -72.7036 91° East 302 348 5,200 -807 Descending Boston Center
Thu 09:14:43 PM 42.2528 -72.6217 130° Southeast 292 336 5,000 -98 Descending Boston Center
Thu 09:15:44 PM 42.2025 -72.5483 133° Southeast 257 296 5,000 -645 Level Boston Center
Thu 09:16:44 PM 42.1539 -72.4789 133° Southeast 262 302 3,700 -1,000 Descending Boston Center
Thu 09:17:38 PM 42.0989 -72.4736 176° South 195 224 3,100 -362 Descending Boston Center
Thu 09:18:40 PM 42.0669 -72.5144 224° Southwest 159 183 3,000 -146 Descending Boston Center
Thu 09:19:41 PM 42.0367 -72.5586 227° Southwest 161 185 2,800 -574 Descending Boston Center
Thu 09:20:35 PM 42.0069 -72.6000 226° Southwest 163 188 1,900 -828 Descending Boston Center
Thu 09:21:37 PM 41.9786 -72.6333 221° Southwest 136 157 1,200 -692 Descending Boston Center
Thu 09:22:45 PM 41.9544 -72.6681 227° Southwest 116 133 400 -706 Descending Boston Center

Login

Don't have an account? Register now (free) for customized features, flight alerts, and more!